ROMMA est une association bénévole à but non lucratif. Votre soutien est indispensable : ADHERER à ROMMA ou FAIRE un DON

Voiron - (38, Isère)

Voironnais (300 m)   Longitude: 05° 35' E   Latitude: 45° 23' N Station partenaire n°109
 

Détail journalier du     <<     >>

Température Precipitation Humidité Pression Vent Dir Rafale Dir. rafale Ensol.
Heure (°C) (mm) (%) (hPa) (km/h) (km/h) (min)
01:00 27.406210162SSE10NO0
02:00 26.106710163NO8NO0
03:00 26.106810162ONO8NO0
04:00 25.106810162ONO8NO0
05:00 24.107010162SO6NO0
06:00 23.906510164ENE16E0
07:00 23.506510162ONO6ONO0
08:00 25.905710164SSE13ESE60
09:00 28.304710167ENE23ENE60
10:00 29.804910165ENE16NE60
11:00 30.805110163NE11SO60
12:00 30.205710168S16S60
13:00 31.905410165S13SSO60
14:00 32.905110156SSE16SSE60
15:00 34.105210156S15S60
16:00 34.804910157SSE16SSE60
17:00 35.404510156S16SSO60
18:00 35.604310157S18S60
19:00 36.004210144SSO15SSO60
20:00 36.904510143O10SSO60
21:00 33.905210144SSE11S60
22:00 31.1060101510SSE29SSE0
23:00 30.206110158SSE23SSE0
minuit 29.806210164ESE16SSE0

Graphique du 29-06-2019

 

Serveur OMMA